createdAt,value
2019-02-24T03:10:54.443Z,1.60
2019-02-24T03:13:35.551Z,1.60
2019-02-24T03:16:13.497Z,1.30
2019-02-24T03:18:50.510Z,1.10
2019-02-24T03:21:28.600Z,1.20
2019-02-24T03:24:04.625Z,1.30
2019-02-24T03:26:37.100Z,1.20
2019-02-24T03:29:20.432Z,1.20
2019-02-24T03:32:07.917Z,1.20
2019-02-24T03:34:53.098Z,1.10
2019-02-24T03:37:32.400Z,1.00
2019-02-24T03:40:12.779Z,1.00
2019-02-24T03:43:16.559Z,1.10
2019-02-24T03:46:12.226Z,1.10
2019-02-24T03:48:59.063Z,1.30
2019-02-24T03:51:34.358Z,1.50
2019-02-24T03:54:21.880Z,1.40
2019-02-24T03:56:58.037Z,1.50
2019-02-24T07:11:16.489Z,2.70
2019-02-24T07:48:54.703Z,3.20
2019-02-24T08:16:45.850Z,3.90
2019-02-24T08:26:49.977Z,4.10
2019-02-24T09:31:48.522Z,5.50
2019-02-24T09:55:51.567Z,7.30
2019-02-24T10:06:37.090Z,7.90
2019-02-24T10:10:21.428Z,8.10
2019-02-24T10:13:44.227Z,8.80
2019-02-24T10:16:16.337Z,9.20
2019-02-24T10:18:48.536Z,9.10
2019-02-24T10:21:18.224Z,9.10
2019-02-24T10:23:47.812Z,9.10
2019-02-24T10:26:17.452Z,9.00
2019-02-24T10:28:53.446Z,9.00
2019-02-24T10:31:22.843Z,9.10
2019-02-24T10:33:52.367Z,9.00
2019-02-24T10:36:21.971Z,8.90
2019-02-24T10:38:51.618Z,9.70
2019-02-24T10:41:21.217Z,9.90
2019-02-24T10:43:50.855Z,10.50
2019-02-24T10:46:20.465Z,11.00
2019-02-24T10:52:22.919Z,12.30
2019-02-24T10:55:45.703Z,12.00
2019-02-24T10:58:15.227Z,11.50
2019-02-24T11:00:45.379Z,11.60
2019-02-24T11:03:29.334Z,11.20
2019-02-24T11:06:01.059Z,11.70
2019-02-24T11:08:46.210Z,11.60
2019-02-24T11:11:15.917Z,11.70
2019-02-24T11:13:45.816Z,12.20
2019-02-24T11:16:15.482Z,12.40
2019-02-24T11:18:45.282Z,12.40
2019-02-24T11:21:17.121Z,12.10
2019-02-24T11:23:46.817Z,12.40
2019-02-24T11:26:16.718Z,12.20
2019-02-24T11:28:46.355Z,12.30
2019-02-24T11:31:16.037Z,12.90
2019-02-24T11:33:45.878Z,13.00
2019-02-24T11:36:15.838Z,12.50
2019-02-24T11:38:45.622Z,12.30
2019-02-24T11:41:15.772Z,12.30
2019-02-24T11:43:58.920Z,12.30
2019-02-24T11:46:28.995Z,12.10
2019-02-24T11:48:58.795Z,11.80
2019-02-24T11:51:28.447Z,12.00
2019-02-24T11:53:58.310Z,11.80
2019-02-24T11:56:30.930Z,11.60
2019-02-24T11:59:00.710Z,12.30
2019-02-24T12:01:30.408Z,12.90
2019-02-24T12:04:00.506Z,12.50
2019-02-24T12:06:30.105Z,12.30
2019-02-24T12:09:05.173Z,12.60
2019-02-24T12:11:30.894Z,12.70
2019-02-24T12:14:00.530Z,12.50
2019-02-24T12:16:30.338Z,12.70
2019-02-24T12:18:59.953Z,12.70
2019-02-24T12:21:29.467Z,12.60
2019-02-24T12:23:59.138Z,12.40
2019-02-24T12:26:28.741Z,12.40
2019-02-24T12:28:58.300Z,12.70
2019-02-24T12:31:27.925Z,12.90
2019-02-24T12:33:57.432Z,12.60
2019-02-24T12:36:27.048Z,12.50
2019-02-24T12:38:56.608Z,12.50
2019-02-24T12:41:26.201Z,12.70
2019-02-24T12:43:55.808Z,13.20
2019-02-24T12:46:25.393Z,13.20
2019-02-24T12:48:54.944Z,13.00
2019-02-24T12:51:24.543Z,12.70
2019-02-24T12:53:54.114Z,12.50
2019-02-24T12:56:23.672Z,12.70
2019-02-24T12:58:53.269Z,13.20
2019-02-24T13:01:22.787Z,13.80
2019-02-24T13:03:52.298Z,14.20
2019-02-24T13:06:21.792Z,14.20
2019-02-24T13:08:51.388Z,14.10
2019-02-24T13:11:20.929Z,14.00
2019-02-24T13:13:50.598Z,14.30
2019-02-24T13:16:20.203Z,14.60
2019-02-24T13:18:49.782Z,14.60
2019-02-24T13:21:19.278Z,14.50
2019-02-24T13:23:48.786Z,14.50
2019-02-24T13:26:18.445Z,14.20
2019-02-24T13:28:50.503Z,13.70
2019-02-24T13:31:19.317Z,13.70
2019-02-24T13:33:48.974Z,13.70
2019-02-24T13:36:18.526Z,13.80
2019-02-24T13:38:48.324Z,13.80
2019-02-24T13:41:17.825Z,13.70
2019-02-24T13:43:47.414Z,13.70
2019-02-24T13:46:17.024Z,13.70
2019-02-24T13:48:46.531Z,14.10
2019-02-24T13:51:16.148Z,14.40
2019-02-24T13:53:45.865Z,14.10
2019-02-24T13:56:15.597Z,14.30
2019-02-24T13:58:45.175Z,14.10
2019-02-24T14:01:14.782Z,14.20
2019-02-24T14:03:44.298Z,14.10
2019-02-24T14:06:13.831Z,13.90
2019-02-24T14:08:43.483Z,14.10
2019-02-24T14:11:13.074Z,14.20
2019-02-24T14:13:42.683Z,13.90
2019-02-24T14:16:12.245Z,13.70
2019-02-24T14:18:42.011Z,13.80
2019-02-24T14:21:11.548Z,14.10
2019-02-24T14:23:41.114Z,14.10
2019-02-24T14:26:10.974Z,14.50
2019-02-24T14:28:40.557Z,14.80
2019-02-24T14:31:10.154Z,14.70
2019-02-24T14:33:40.330Z,14.50
2019-02-24T14:36:09.898Z,14.40
2019-02-24T14:38:39.518Z,14.90
2019-02-24T14:41:09.113Z,15.10
2019-02-24T14:43:38.729Z,15.30
2019-02-24T14:46:08.390Z,15.00
2019-02-24T14:48:38.063Z,14.70
2019-02-24T14:51:11.464Z,14.50
2019-02-24T14:53:41.036Z,14.20
2019-02-24T14:56:10.590Z,13.90
2019-02-24T14:58:40.237Z,14.20
2019-02-24T15:01:09.808Z,13.90
2019-02-24T15:03:39.889Z,13.70
2019-02-24T15:06:09.481Z,13.90
2019-02-24T15:08:39.096Z,13.70
2019-02-24T15:11:08.679Z,13.70
2019-02-24T15:13:38.319Z,13.60
2019-02-24T15:16:07.981Z,13.40
2019-02-24T15:18:37.924Z,13.70
2019-02-24T15:21:07.704Z,13.70
2019-02-24T15:23:37.501Z,13.70
2019-02-24T15:26:07.236Z,13.60
2019-02-24T15:28:37.008Z,13.60
2019-02-24T15:31:06.892Z,13.50
2019-02-24T15:33:36.719Z,13.30
2019-02-24T15:36:06.593Z,13.40
2019-02-24T15:38:36.810Z,13.30
2019-02-24T15:41:06.608Z,13.30
2019-02-24T15:43:36.229Z,13.30
2019-02-24T15:46:06.007Z,13.60
2019-02-24T15:48:35.542Z,13.50
2019-02-24T15:51:05.352Z,13.20
2019-02-24T15:53:34.983Z,13.20
2019-02-24T15:56:04.994Z,13.10
2019-02-24T15:58:35.003Z,12.80
2019-02-24T16:01:05.640Z,13.10
2019-02-24T16:03:36.214Z,13.40
2019-02-24T16:06:06.121Z,13.80
2019-02-24T16:08:35.785Z,13.80
2019-02-24T16:11:05.511Z,13.60
2019-02-24T16:13:35.342Z,13.50
2019-02-24T16:16:05.107Z,13.10
2019-02-24T16:18:36.607Z,12.80
2019-02-24T16:21:06.478Z,12.60
2019-02-24T16:23:38.097Z,12.20
2019-02-24T16:26:07.914Z,12.40
2019-02-24T16:28:38.180Z,12.80
2019-02-24T16:31:16.599Z,12.70
2019-02-24T16:34:31.370Z,12.60
2019-02-24T16:37:01.074Z,12.70
2019-02-24T16:39:31.280Z,12.90
2019-02-24T16:42:01.104Z,13.00
2019-02-24T16:44:34.029Z,13.00
2019-02-24T16:47:04.164Z,13.00
2019-02-24T16:49:34.235Z,12.90
2019-02-24T16:52:05.696Z,12.70
2019-02-24T16:54:35.536Z,12.40
2019-02-24T16:57:07.460Z,12.30
2019-02-24T16:59:37.435Z,12.40
2019-02-24T17:02:07.418Z,12.50
2019-02-24T17:04:37.419Z,12.50
2019-02-24T17:07:07.459Z,11.70
2019-02-24T17:09:37.350Z,10.80
2019-02-24T17:12:07.257Z,10.10
2019-02-24T17:14:37.018Z,9.60
2019-02-24T17:17:06.969Z,9.20
2019-02-24T17:19:37.041Z,8.90
2019-02-24T17:22:06.701Z,8.60
2019-02-24T17:24:39.010Z,8.40
2019-02-24T17:27:09.058Z,8.30
2019-02-24T17:29:39.242Z,8.20
2019-02-24T17:32:09.599Z,8.10
2019-02-24T17:34:41.873Z,8.00
2019-02-24T17:37:19.879Z,7.90
2019-02-24T17:39:43.365Z,7.80
2019-02-24T17:42:13.087Z,7.80
2019-02-24T17:44:45.746Z,7.70
2019-02-24T17:47:15.573Z,7.80
2019-02-24T17:49:45.394Z,7.90
2019-02-24T17:52:15.681Z,7.80
2019-02-24T17:54:45.712Z,7.70
2019-02-24T17:57:15.564Z,7.70
2019-02-24T17:59:49.647Z,7.60
2019-02-24T18:02:19.472Z,7.50
2019-02-24T18:07:38.202Z,7.50
2019-02-24T18:10:07.994Z,7.30
2019-02-24T18:12:37.811Z,7.30
2019-02-24T18:15:09.163Z,7.20
2019-02-24T18:17:41.093Z,7.20
2019-02-24T18:20:11.852Z,7.10
2019-02-24T18:22:42.564Z,7.10
2019-02-24T18:25:12.822Z,7.00
2019-02-24T18:27:47.174Z,7.00
2019-02-24T18:30:52.215Z,7.00
2019-02-24T18:33:20.885Z,7.00
2019-02-24T18:35:50.518Z,7.00
2019-02-24T18:38:20.378Z,6.90
2019-02-24T18:40:50.083Z,6.90
2019-02-24T18:43:19.833Z,6.80
2019-02-24T18:45:49.865Z,6.80
2019-02-24T18:48:22.005Z,6.80
2019-02-24T18:50:52.715Z,6.70
2019-02-24T18:53:23.425Z,6.70
2019-02-24T18:55:53.854Z,6.70
2019-02-24T18:58:31.286Z,6.60
2019-02-24T19:01:01.678Z,6.60
2019-02-24T19:03:32.678Z,6.50
2019-02-24T19:06:03.594Z,6.60
2019-02-24T19:08:33.467Z,6.60
2019-02-24T19:11:03.845Z,6.60
2019-02-24T19:13:34.805Z,6.60
2019-02-24T19:16:04.721Z,6.60
2019-02-24T19:18:34.551Z,6.60
2019-02-24T19:21:04.417Z,6.60
2019-02-24T19:23:34.186Z,6.50
2019-02-24T19:26:03.999Z,6.50
2019-02-24T19:28:33.659Z,6.40
2019-02-24T19:31:03.371Z,6.40
2019-02-24T19:33:33.245Z,6.30
2019-02-24T19:36:03.241Z,6.30
2019-02-24T19:38:33.168Z,6.30
2019-02-24T19:41:02.925Z,6.30
2019-02-24T19:43:33.099Z,6.30
2019-02-24T19:46:02.917Z,6.30
2019-02-24T19:48:41.604Z,6.40
2019-02-24T19:51:06.399Z,6.30
2019-02-24T19:53:37.729Z,6.30
2019-02-24T19:56:07.885Z,6.30
2019-02-24T19:58:42.737Z,6.30
2019-02-24T20:01:12.555Z,6.30
2019-02-24T20:03:42.296Z,6.20
2019-02-24T20:06:16.329Z,6.20
2019-02-24T20:08:58.375Z,6.10
2019-02-24T20:11:30.568Z,6.00
2019-02-24T20:14:01.639Z,6.00
2019-02-24T20:16:34.465Z,6.00
2019-02-24T20:19:04.675Z,6.00
2019-02-24T20:21:36.096Z,5.90
2019-02-24T20:24:08.555Z,5.90
2019-02-24T20:26:58.091Z,5.80
2019-02-24T20:29:31.105Z,5.80
2019-02-24T20:32:01.365Z,5.70
2019-02-24T20:34:33.435Z,5.70
2019-02-24T20:37:05.044Z,5.80
2019-02-24T20:39:35.700Z,5.80
2019-02-24T20:42:06.341Z,5.80
2019-02-24T20:44:36.702Z,5.80
2019-02-24T20:47:07.931Z,5.80
2019-02-24T20:49:38.785Z,5.80
2019-02-24T20:52:08.841Z,6.00
2019-02-24T20:54:48.612Z,6.10
2019-02-24T20:57:18.838Z,6.10
2019-02-24T20:59:49.138Z,6.10
2019-02-24T21:02:18.983Z,6.00
2019-02-24T21:04:48.968Z,6.00
2019-02-24T21:07:25.373Z,5.80
2019-02-24T21:10:03.469Z,5.70
2019-02-24T21:12:39.343Z,5.50
2019-02-24T21:15:10.699Z,5.50
2019-02-24T21:17:41.462Z,5.40
2019-02-24T21:20:28.584Z,5.30
2019-02-24T21:22:58.548Z,5.20
2019-02-24T21:25:30.573Z,5.20
2019-02-24T21:28:04.160Z,5.10
2019-02-24T21:30:53.187Z,5.10
2019-02-24T21:33:29.568Z,5.00
2019-02-24T21:36:28.375Z,5.00
2019-02-24T21:39:17.866Z,5.00
2019-02-24T21:41:47.694Z,5.00
2019-02-24T21:44:17.613Z,4.90
2019-02-24T21:46:47.288Z,4.90
2019-02-24T21:49:17.030Z,4.90
2019-02-24T21:51:46.726Z,4.90
2019-02-24T21:54:16.436Z,4.90
2019-02-24T21:56:46.145Z,4.90
2019-02-24T21:59:15.815Z,4.90
2019-02-24T22:01:45.779Z,4.80
2019-02-24T22:04:15.774Z,4.80
2019-02-24T22:06:46.097Z,4.70
2019-02-24T22:09:16.075Z,4.70
2019-02-24T22:11:49.715Z,4.70
2019-02-24T22:14:20.677Z,4.60
2019-02-24T22:16:51.985Z,4.60
2019-02-24T22:19:26.341Z,4.50
2019-02-24T22:21:59.923Z,4.60
2019-02-24T22:24:30.429Z,4.60
2019-02-24T22:27:00.383Z,4.60
2019-02-24T22:29:30.640Z,4.50
2019-02-24T22:32:00.874Z,4.50
2019-02-24T22:34:31.081Z,4.50
2019-02-24T22:37:01.234Z,4.40
2019-02-24T22:39:31.615Z,4.30
2019-02-24T22:42:06.714Z,4.30
2019-02-24T22:44:38.981Z,4.30
2019-02-24T22:47:10.446Z,4.30
2019-02-24T22:49:40.775Z,4.30
2019-02-24T22:52:11.816Z,4.30
2019-02-24T22:54:42.461Z,4.30
2019-02-24T22:57:12.694Z,4.20
2019-02-24T22:59:43.918Z,4.20
2019-02-24T23:02:14.307Z,4.20
2019-02-24T23:04:44.087Z,4.20
2019-02-24T23:07:17.126Z,4.20
2019-02-24T23:09:47.141Z,4.20
2019-02-24T23:12:17.060Z,4.20
2019-02-24T23:14:46.746Z,4.10
2019-02-24T23:17:16.376Z,4.10
2019-02-24T23:19:46.013Z,4.00
2019-02-24T23:22:15.823Z,4.00
2019-02-24T23:24:45.534Z,3.90
2019-02-24T23:27:15.439Z,3.90
2019-02-24T23:29:46.763Z,3.90
2019-02-24T23:32:16.636Z,3.80
2019-02-24T23:34:46.320Z,3.80
2019-02-24T23:37:17.398Z,3.80
2019-02-24T23:39:47.231Z,3.80
2019-02-24T23:42:17.010Z,3.70
2019-02-24T23:44:46.705Z,3.70
2019-02-24T23:47:16.810Z,3.70
2019-02-24T23:49:46.531Z,3.70
2019-02-24T23:52:16.693Z,3.70
2019-02-24T23:54:46.416Z,3.70
2019-02-24T23:57:16.234Z,3.60
2019-02-24T23:59:46.026Z,3.60
